createdAt,value
2019-03-18T00:01:01.080Z,5.86
2019-03-18T00:03:33.483Z,5.90
2019-03-18T00:06:04.783Z,5.83
2019-03-18T00:08:36.076Z,5.85
2019-03-18T00:11:08.628Z,5.85
2019-03-18T00:13:40.315Z,5.84
2019-03-18T00:16:11.635Z,5.83
2019-03-18T00:18:42.826Z,5.83
2019-03-18T00:21:14.099Z,5.84
2019-03-18T00:23:46.412Z,5.85
2019-03-18T00:26:17.617Z,5.91
2019-03-18T00:28:48.928Z,5.90
2019-03-18T00:31:20.239Z,5.83
2019-03-18T00:33:51.437Z,5.73
2019-03-18T00:36:22.607Z,5.71
2019-03-18T00:38:54.943Z,5.78
2019-03-18T00:41:26.264Z,5.73
2019-03-18T00:43:57.484Z,5.69
2019-03-18T00:46:29.114Z,5.80
2019-03-18T00:49:00.328Z,5.67
2019-03-18T00:51:32.029Z,5.76
2019-03-18T00:54:05.320Z,5.80
2019-03-18T00:56:37.050Z,5.85
2019-03-18T00:59:08.831Z,5.78
2019-03-18T01:01:40.215Z,5.92
2019-03-18T01:04:11.431Z,5.87
2019-03-18T01:06:43.747Z,5.86
2019-03-18T01:09:15.154Z,5.89
2019-03-18T01:11:46.804Z,5.83
2019-03-18T01:14:18.027Z,5.86
2019-03-18T01:16:49.300Z,5.94
2019-03-18T01:19:20.705Z,5.80
2019-03-18T01:21:52.602Z,5.73
2019-03-18T01:24:23.910Z,5.81
2019-03-18T01:26:55.171Z,5.87
2019-03-18T01:29:26.448Z,5.88
2019-03-18T01:31:57.646Z,5.74
2019-03-18T01:34:28.892Z,5.75
2019-03-18T01:37:00.972Z,5.76
2019-03-18T01:39:32.950Z,5.62
2019-03-18T01:42:04.262Z,5.67
2019-03-18T01:44:35.869Z,5.68
2019-03-18T01:47:07.055Z,5.73
2019-03-18T01:49:38.300Z,5.65
2019-03-18T01:52:09.769Z,5.70
2019-03-18T01:54:43.247Z,5.78
2019-03-18T01:57:14.941Z,5.79
2019-03-18T01:59:46.146Z,5.87
2019-03-18T02:02:18.781Z,5.86
2019-03-18T02:04:50.053Z,5.86
2019-03-18T02:07:22.256Z,5.96
2019-03-18T02:09:53.802Z,5.94
2019-03-18T02:12:25.665Z,5.89
2019-03-18T02:14:57.915Z,5.93
2019-03-18T02:17:29.092Z,5.90
2019-03-18T02:20:00.719Z,5.90
2019-03-18T02:22:33.425Z,5.88
2019-03-18T02:25:04.787Z,6.00
2019-03-18T02:27:36.505Z,6.01
2019-03-18T02:30:07.857Z,5.88
2019-03-18T02:32:39.033Z,5.89
2019-03-18T02:35:10.656Z,5.85
2019-03-18T02:37:41.934Z,5.77
2019-03-18T02:40:13.736Z,5.82
2019-03-18T02:42:45.064Z,5.85
2019-03-18T02:45:17.031Z,5.82
2019-03-18T02:47:48.239Z,5.81
2019-03-18T02:50:19.427Z,5.92
2019-03-18T02:52:50.713Z,5.97
2019-03-18T02:55:22.041Z,6.03
2019-03-18T02:57:54.172Z,6.08
2019-03-18T03:00:25.454Z,6.03
2019-03-18T03:02:56.649Z,6.16
2019-03-18T03:05:27.871Z,6.15
2019-03-18T03:07:59.086Z,6.18
2019-03-18T03:10:30.272Z,6.11
2019-03-18T03:13:01.432Z,6.05
2019-03-18T03:15:32.719Z,6.07
2019-03-18T03:18:04.483Z,6.12
2019-03-18T03:20:37.035Z,6.15
2019-03-18T03:23:08.314Z,6.16
2019-03-18T03:25:39.986Z,6.19
2019-03-18T03:28:11.092Z,6.24
2019-03-18T03:30:42.284Z,6.32
2019-03-18T03:33:13.543Z,6.18
2019-03-18T03:35:44.735Z,6.23
2019-03-18T03:38:15.959Z,6.25
2019-03-18T03:40:47.178Z,6.27
2019-03-18T03:43:18.680Z,6.23
2019-03-18T03:45:50.077Z,6.17
2019-03-18T03:48:21.267Z,6.20
2019-03-18T03:50:52.503Z,6.15
2019-03-18T03:53:24.875Z,6.11
2019-03-18T03:55:56.130Z,6.08
2019-03-18T03:58:27.461Z,6.13
2019-03-18T04:00:58.598Z,5.85
2019-03-18T04:03:38.366Z,5.63
2019-03-18T04:06:02.877Z,5.33
2019-03-18T04:08:34.354Z,5.24
2019-03-18T04:11:08.552Z,5.18
2019-03-18T04:13:39.854Z,5.22
2019-03-18T04:16:11.085Z,5.20
2019-03-18T04:18:42.817Z,5.23
2019-03-18T04:21:14.040Z,5.30
2019-03-18T04:23:45.829Z,5.25
2019-03-18T04:26:16.979Z,5.28
2019-03-18T04:28:48.601Z,5.20
2019-03-18T04:31:19.811Z,5.20
2019-03-18T04:33:51.566Z,5.18
2019-03-18T04:36:22.789Z,5.20
2019-03-18T04:38:54.365Z,5.16
2019-03-18T04:41:25.559Z,5.23
2019-03-18T04:43:56.805Z,5.34
2019-03-18T04:46:28.842Z,5.34
2019-03-18T04:49:00.130Z,5.42
2019-03-18T04:51:31.722Z,5.46
2019-03-18T04:54:03.479Z,5.51
2019-03-18T04:56:34.654Z,5.49
2019-03-18T04:59:07.172Z,5.45
2019-03-18T05:01:38.833Z,5.44
2019-03-18T05:04:10.172Z,5.53
2019-03-18T05:06:41.316Z,5.55
2019-03-18T05:09:12.537Z,5.47
2019-03-18T05:11:43.749Z,5.51
2019-03-18T05:14:15.389Z,5.48
2019-03-18T05:16:47.012Z,5.54
2019-03-18T05:19:18.227Z,5.49
2019-03-18T05:21:49.401Z,5.48
2019-03-18T05:24:20.616Z,5.45
2019-03-18T05:26:52.185Z,5.51
2019-03-18T05:29:23.781Z,5.51
2019-03-18T05:31:54.924Z,5.55
2019-03-18T05:34:26.152Z,5.58
2019-03-18T05:36:57.361Z,5.61
2019-03-18T05:39:28.561Z,5.65
2019-03-18T05:41:59.780Z,5.65
2019-03-18T05:44:31.095Z,5.70
2019-03-18T05:47:02.356Z,5.73
2019-03-18T05:49:33.483Z,5.74
2019-03-18T05:52:05.065Z,5.78
2019-03-18T05:54:36.172Z,5.97
2019-03-18T05:57:07.880Z,5.87
2019-03-18T05:59:39.011Z,5.82
2019-03-18T06:02:10.738Z,5.81
2019-03-18T06:04:46.819Z,5.81
2019-03-18T06:07:18.091Z,5.86
2019-03-18T06:09:49.210Z,5.89
2019-03-18T06:12:20.411Z,5.90
2019-03-18T06:14:52.037Z,5.91
2019-03-18T06:17:26.122Z,5.92
2019-03-18T06:19:57.373Z,5.98
2019-03-18T06:22:28.637Z,6.08
2019-03-18T06:24:59.761Z,6.18
2019-03-18T06:27:31.065Z,6.14
2019-03-18T06:30:02.955Z,6.19
2019-03-18T06:32:34.109Z,6.22
2019-03-18T06:35:05.598Z,6.18
2019-03-18T06:37:36.912Z,6.13
2019-03-18T06:40:08.525Z,6.04
2019-03-18T06:42:39.807Z,5.90
2019-03-18T06:45:11.750Z,5.87
2019-03-18T06:47:42.969Z,5.86
2019-03-18T06:50:15.587Z,5.93
2019-03-18T06:52:47.049Z,5.87
2019-03-18T06:55:18.356Z,5.86
2019-03-18T06:57:49.603Z,5.87
2019-03-18T07:00:20.780Z,5.99
2019-03-18T07:02:52.318Z,5.99
2019-03-18T07:05:28.733Z,5.88
2019-03-18T07:08:01.677Z,6.00
2019-03-18T07:10:42.366Z,6.08
2019-03-18T07:13:13.510Z,6.06
2019-03-18T07:15:44.897Z,6.22
2019-03-18T07:18:18.584Z,6.29
2019-03-18T07:20:49.091Z,6.20
2019-03-18T07:23:20.339Z,6.27
2019-03-18T07:26:31.432Z,6.27
2019-03-18T07:29:02.597Z,6.68
2019-03-18T07:31:33.844Z,6.82
2019-03-18T07:34:05.124Z,6.72
2019-03-18T07:36:36.308Z,6.62
2019-03-18T07:40:54.595Z,6.83
2019-03-18T07:43:25.869Z,6.99
2019-03-18T07:45:57.785Z,7.01
2019-03-18T07:48:31.506Z,6.77
2019-03-18T07:51:02.950Z,6.67
2019-03-18T07:53:34.427Z,6.81
2019-03-18T07:56:05.740Z,6.88
2019-03-18T07:58:37.230Z,6.86
2019-03-18T08:01:08.701Z,6.98
2019-03-18T08:03:40.131Z,6.96
2019-03-18T08:06:11.814Z,6.84
2019-03-18T08:08:42.983Z,6.95
2019-03-18T08:11:14.823Z,6.82
2019-03-18T08:13:46.171Z,6.87
2019-03-18T08:16:17.386Z,6.92
2019-03-18T08:21:08.980Z,6.91
2019-03-18T08:23:40.277Z,6.97
2019-03-18T08:26:12.216Z,6.85
2019-03-18T08:28:43.377Z,6.69
2019-03-18T08:31:14.613Z,7.13
2019-03-18T08:33:45.860Z,7.19
2019-03-18T08:36:17.476Z,7.48
2019-03-18T08:38:48.734Z,7.47
2019-03-18T08:41:20.448Z,7.19
2019-03-18T08:43:51.685Z,7.19
2019-03-18T08:46:23.312Z,7.10
2019-03-18T08:48:56.050Z,7.27
2019-03-18T08:51:27.985Z,7.03
2019-03-18T08:53:59.295Z,7.37
2019-03-18T08:56:30.543Z,7.33
2019-03-18T08:59:01.735Z,7.35
2019-03-18T09:01:33.942Z,7.40
2019-03-18T09:04:05.697Z,7.48
2019-03-18T09:06:36.907Z,7.26
2019-03-18T09:09:11.592Z,7.26
2019-03-18T09:11:42.832Z,7.27
2019-03-18T09:14:14.144Z,7.35
2019-03-18T09:16:45.869Z,7.48
2019-03-18T09:19:17.073Z,7.52
2019-03-18T09:21:48.596Z,7.47
2019-03-18T09:24:20.181Z,7.77
2019-03-18T09:27:01.817Z,7.69
2019-03-18T09:29:25.501Z,7.87
2019-03-18T09:31:56.732Z,7.76
2019-03-18T09:34:28.040Z,7.90
2019-03-18T09:36:59.286Z,8.03
2019-03-18T09:39:30.602Z,7.82
2019-03-18T09:42:02.085Z,7.79
2019-03-18T09:44:33.421Z,7.91
2019-03-18T09:47:04.705Z,8.18
2019-03-18T09:49:35.994Z,8.20
2019-03-18T09:52:09.244Z,8.24
2019-03-18T09:54:40.628Z,8.39
2019-03-18T09:57:11.948Z,8.41
2019-03-18T09:59:43.663Z,8.04
2019-03-18T10:02:16.940Z,8.12
2019-03-18T10:04:54.208Z,8.40
2019-03-18T10:07:25.933Z,8.45
2019-03-18T10:09:57.207Z,8.70
2019-03-18T10:12:29.989Z,8.74
2019-03-18T10:15:01.311Z,8.36
2019-03-18T10:17:32.994Z,8.31
2019-03-18T10:20:04.408Z,8.11
2019-03-18T10:22:36.124Z,8.18
2019-03-18T10:25:07.543Z,8.08
2019-03-18T10:27:38.892Z,8.01
2019-03-18T10:30:10.302Z,7.70
2019-03-18T10:33:50.450Z,7.58
2019-03-18T10:36:22.055Z,7.40
2019-03-18T10:38:53.337Z,7.49
2019-03-18T10:41:24.620Z,7.67
2019-03-18T10:43:55.873Z,7.87
2019-03-18T10:46:27.113Z,7.93
2019-03-18T10:48:58.337Z,7.96
2019-03-18T10:51:32.526Z,8.20
2019-03-18T10:54:04.179Z,8.21
2019-03-18T10:56:35.441Z,8.04
2019-03-18T10:59:06.673Z,7.79
2019-03-18T11:01:37.903Z,7.77
2019-03-18T11:04:09.153Z,7.59
2019-03-18T11:06:40.478Z,6.59
2019-03-18T11:09:11.680Z,5.97
2019-03-18T11:11:43.086Z,6.25
2019-03-18T11:14:14.317Z,6.15
2019-03-18T11:16:45.597Z,6.28
2019-03-18T11:19:17.790Z,6.10
2019-03-18T11:21:49.063Z,6.50
2019-03-18T11:24:20.302Z,6.32
2019-03-18T11:26:55.252Z,6.52
2019-03-18T11:29:26.267Z,6.44
2019-03-18T11:31:57.850Z,6.09
2019-03-18T11:34:29.053Z,5.83
2019-03-18T11:37:00.226Z,5.92
2019-03-18T11:39:31.584Z,5.97
2019-03-18T11:42:03.647Z,6.20
2019-03-18T11:44:34.882Z,6.28
2019-03-18T11:47:06.345Z,6.42
2019-03-18T11:51:27.907Z,6.81
2019-03-18T11:53:59.571Z,6.92
2019-03-18T11:56:30.789Z,7.00
2019-03-18T11:59:02.022Z,7.15
2019-03-18T12:01:33.345Z,7.16
2019-03-18T12:04:04.875Z,7.24
2019-03-18T12:06:36.026Z,7.38
2019-03-18T12:09:08.719Z,7.51
2019-03-18T12:11:40.094Z,7.63
2019-03-18T12:15:11.759Z,8.01
2019-03-18T12:17:43.447Z,7.88
2019-03-18T12:20:24.297Z,8.14
2019-03-18T12:22:47.984Z,7.94
2019-03-18T12:25:19.286Z,7.96
2019-03-18T12:27:51.014Z,8.11
2019-03-18T12:30:24.399Z,8.12
2019-03-18T12:32:56.162Z,8.12
2019-03-18T12:35:27.407Z,8.04
2019-03-18T12:37:58.680Z,7.95
2019-03-18T12:40:29.985Z,7.90
2019-03-18T12:43:01.401Z,7.89
2019-03-18T12:45:33.230Z,7.86
2019-03-18T12:48:04.627Z,7.74
2019-03-18T12:50:54.448Z,7.41
2019-03-18T12:53:09.599Z,7.37
2019-03-18T12:55:40.853Z,7.50
2019-03-18T12:58:12.019Z,7.61
2019-03-18T13:00:43.536Z,7.60
2019-03-18T13:03:15.286Z,7.71
2019-03-18T13:05:46.726Z,7.94
2019-03-18T13:08:17.967Z,7.94
2019-03-18T13:10:49.354Z,7.89
2019-03-18T13:13:20.827Z,7.97
2019-03-18T13:15:52.320Z,7.90
2019-03-18T13:20:28.880Z,7.96
2019-03-18T13:26:12.075Z,7.90
2019-03-18T13:28:43.320Z,7.77
2019-03-18T13:31:17.218Z,7.58
2019-03-18T13:33:48.557Z,7.69
2019-03-18T13:36:20.209Z,7.59
2019-03-18T13:38:51.830Z,7.51
2019-03-18T13:41:23.344Z,7.65
2019-03-18T13:43:55.538Z,7.68
2019-03-18T13:46:26.738Z,7.98
2019-03-18T13:48:58.336Z,7.81
2019-03-18T13:51:30.106Z,8.14
2019-03-18T13:54:01.385Z,8.25
2019-03-18T13:56:35.470Z,8.17
2019-03-18T13:59:09.435Z,8.04
2019-03-18T14:01:40.607Z,8.14
2019-03-18T14:04:11.883Z,8.20
2019-03-18T14:06:43.252Z,8.22
2019-03-18T14:09:14.428Z,8.31
2019-03-18T14:11:46.026Z,8.19
2019-03-18T14:14:17.749Z,8.37
2019-03-18T14:16:49.122Z,8.29
2019-03-18T14:19:20.871Z,7.80
2019-03-18T14:21:52.612Z,7.59
2019-03-18T14:24:23.951Z,7.44
2019-03-18T14:26:55.303Z,7.45
2019-03-18T14:29:28.286Z,7.41
2019-03-18T14:31:59.532Z,7.53
2019-03-18T14:34:30.804Z,7.59
2019-03-18T14:37:02.305Z,7.62
2019-03-18T14:39:33.795Z,7.79
2019-03-18T14:42:05.993Z,7.78
2019-03-18T14:44:39.051Z,7.72
2019-03-18T14:47:11.021Z,7.94
2019-03-18T14:49:42.806Z,7.94
2019-03-18T14:52:14.070Z,8.09
2019-03-18T14:54:45.987Z,8.11
2019-03-18T14:57:17.437Z,8.35
2019-03-18T14:59:51.278Z,8.34
2019-03-18T15:02:22.531Z,8.46
2019-03-18T15:04:54.328Z,8.68
2019-03-18T15:07:25.634Z,8.38
2019-03-18T15:09:56.956Z,8.46
2019-03-18T15:12:28.217Z,8.26
2019-03-18T15:14:59.449Z,8.43
2019-03-18T15:17:31.694Z,8.26
2019-03-18T15:20:02.943Z,8.57
2019-03-18T15:22:34.358Z,8.24
2019-03-18T15:25:06.820Z,8.14
2019-03-18T15:27:38.234Z,8.09
2019-03-18T15:30:11.904Z,7.83
2019-03-18T15:32:43.187Z,7.37
2019-03-18T15:35:14.470Z,7.46
2019-03-18T15:37:46.010Z,7.05
2019-03-18T15:40:17.989Z,6.98
2019-03-18T15:42:49.320Z,6.83
2019-03-18T15:45:21.707Z,6.88
2019-03-18T15:47:53.348Z,6.98
2019-03-18T15:50:24.638Z,7.01
2019-03-18T15:52:56.096Z,7.07
2019-03-18T15:55:27.344Z,6.89
2019-03-18T15:57:59.022Z,6.99
2019-03-18T16:00:30.603Z,6.90
2019-03-18T16:03:01.812Z,6.97
2019-03-18T16:05:33.001Z,7.05
2019-03-18T16:08:04.375Z,7.12
2019-03-18T16:10:36.133Z,7.10
2019-03-18T16:13:08.029Z,7.25
2019-03-18T16:15:40.385Z,7.31
2019-03-18T16:18:11.662Z,7.25
2019-03-18T16:20:42.905Z,7.28
2019-03-18T16:23:16.545Z,7.14
2019-03-18T16:25:48.451Z,7.32
2019-03-18T16:28:22.180Z,7.14
2019-03-18T16:30:56.614Z,7.23
2019-03-18T16:33:28.365Z,7.25
2019-03-18T16:35:59.651Z,7.16
2019-03-18T16:38:30.828Z,7.14
2019-03-18T16:41:05.203Z,7.13
2019-03-18T16:43:38.989Z,7.16
2019-03-18T16:46:10.853Z,7.25
2019-03-18T16:48:42.121Z,7.17
2019-03-18T16:51:49.294Z,6.98
2019-03-18T16:54:22.185Z,6.94
2019-03-18T16:56:53.492Z,6.50
2019-03-18T16:59:24.763Z,6.60
2019-03-18T17:01:56.040Z,6.86
2019-03-18T17:04:27.832Z,6.76
2019-03-18T17:06:59.964Z,6.75
2019-03-18T17:09:31.306Z,6.70
2019-03-18T17:12:05.924Z,6.70
2019-03-18T17:14:37.594Z,6.67
2019-03-18T17:17:09.299Z,6.53
2019-03-18T17:19:40.685Z,6.64
2019-03-18T17:22:12.043Z,6.63
2019-03-18T17:24:44.870Z,6.53
2019-03-18T17:27:18.647Z,6.38
2019-03-18T17:29:51.093Z,6.52
2019-03-18T17:32:22.711Z,6.50
2019-03-18T17:34:54.000Z,6.47
2019-03-18T17:37:29.070Z,6.56
2019-03-18T17:40:03.506Z,6.49
2019-03-18T17:42:35.980Z,6.40
2019-03-18T17:45:12.947Z,6.50
2019-03-18T17:47:46.510Z,6.50
2019-03-18T17:50:19.009Z,6.51
2019-03-18T17:53:01.639Z,6.51
2019-03-18T17:55:24.288Z,6.48
2019-03-18T17:57:55.749Z,6.56
2019-03-18T18:00:33.201Z,6.52
2019-03-18T18:03:05.226Z,6.56
2019-03-18T18:05:36.457Z,6.66
2019-03-18T18:08:09.882Z,6.54
2019-03-18T18:10:41.101Z,6.50
2019-03-18T18:13:12.784Z,6.35
2019-03-18T18:15:43.994Z,6.40
2019-03-18T18:18:15.401Z,6.40
2019-03-18T18:20:47.005Z,6.30
2019-03-18T18:23:18.254Z,6.32
2019-03-18T18:25:49.584Z,6.29
2019-03-18T18:28:22.366Z,6.27
2019-03-18T18:30:53.601Z,6.32
2019-03-18T18:33:25.029Z,6.25
2019-03-18T18:35:56.249Z,6.32
2019-03-18T18:38:28.065Z,6.19
2019-03-18T18:40:59.710Z,6.25
2019-03-18T18:43:31.036Z,6.26
2019-03-18T18:46:02.591Z,6.26
2019-03-18T18:48:33.827Z,6.15
2019-03-18T18:51:05.051Z,6.19
2019-03-18T18:53:36.259Z,6.20
2019-03-18T18:56:09.898Z,6.18
2019-03-18T18:58:41.163Z,6.28
2019-03-18T19:01:13.422Z,6.27
2019-03-18T19:03:44.752Z,6.32
2019-03-18T19:06:15.983Z,6.18
2019-03-18T19:08:47.374Z,6.14
2019-03-18T19:11:19.694Z,6.15
2019-03-18T19:13:50.909Z,6.07
2019-03-18T19:16:22.446Z,6.04
2019-03-18T19:18:53.752Z,6.02
2019-03-18T19:21:26.099Z,6.06
2019-03-18T19:23:57.795Z,6.14
2019-03-18T19:26:29.501Z,6.14
2019-03-18T19:29:00.896Z,6.15
2019-03-18T19:31:32.471Z,6.05
2019-03-18T19:34:04.730Z,6.04
2019-03-18T19:36:36.116Z,6.03
2019-03-18T19:39:08.642Z,5.97
2019-03-18T19:41:40.533Z,5.94
2019-03-18T19:44:11.778Z,5.97
2019-03-18T19:46:43.706Z,5.93
2019-03-18T19:49:14.886Z,5.83
2019-03-18T19:51:46.508Z,5.78
2019-03-18T19:54:17.669Z,5.82
2019-03-18T19:56:49.361Z,5.87
2019-03-18T19:59:22.678Z,5.83
2019-03-18T20:01:53.939Z,5.86
2019-03-18T20:04:25.623Z,5.82
2019-03-18T20:06:56.937Z,5.80
2019-03-18T20:09:28.116Z,5.68
2019-03-18T20:11:59.727Z,5.74
2019-03-18T20:14:32.695Z,5.68
2019-03-18T20:17:04.085Z,5.69
2019-03-18T20:19:36.186Z,5.72
2019-03-18T20:22:08.029Z,5.75
2019-03-18T20:24:39.277Z,5.75
2019-03-18T20:27:11.655Z,5.74
2019-03-18T20:29:42.978Z,5.60
2019-03-18T20:32:15.809Z,5.62
2019-03-18T20:34:46.968Z,5.69
2019-03-18T20:37:18.363Z,5.57
2019-03-18T20:39:49.508Z,5.55
2019-03-18T20:42:20.806Z,5.51
2019-03-18T20:44:53.760Z,5.46
2019-03-18T20:47:26.074Z,5.45
2019-03-18T20:49:57.872Z,5.52
2019-03-18T20:52:29.741Z,5.58
2019-03-18T20:55:00.892Z,5.56
2019-03-18T20:57:32.222Z,5.47
2019-03-18T21:00:03.554Z,5.53
2019-03-18T21:02:36.506Z,5.64
2019-03-18T21:05:08.522Z,5.64
2019-03-18T21:07:39.862Z,5.71
2019-03-18T21:10:11.416Z,5.77
2019-03-18T21:12:43.089Z,5.75
2019-03-18T21:15:14.321Z,5.74
2019-03-18T21:17:45.702Z,5.78
2019-03-18T21:20:17.223Z,5.74
2019-03-18T21:22:48.369Z,5.75
2019-03-18T21:25:20.013Z,5.74
2019-03-18T21:27:51.315Z,5.76
2019-03-18T21:30:22.665Z,5.71
2019-03-18T21:32:54.135Z,5.74
2019-03-18T21:35:25.458Z,5.64
2019-03-18T21:37:56.760Z,5.69
2019-03-18T21:40:27.950Z,5.83
2019-03-18T21:42:59.362Z,5.76
2019-03-18T21:45:31.013Z,5.57
2019-03-18T21:48:02.212Z,5.59
2019-03-18T21:50:34.503Z,5.51
2019-03-18T21:53:06.058Z,5.49
2019-03-18T21:55:37.378Z,5.50
2019-03-18T21:58:08.722Z,5.39
2019-03-18T22:00:39.941Z,5.43
2019-03-18T22:03:12.111Z,5.39
2019-03-18T22:05:43.726Z,5.37
2019-03-18T22:08:14.891Z,5.34
2019-03-18T22:10:46.523Z,5.39
2019-03-18T22:13:17.764Z,5.37
2019-03-18T22:15:51.846Z,5.32
2019-03-18T22:18:23.111Z,5.35
2019-03-18T22:20:56.074Z,5.31
2019-03-18T22:23:27.519Z,5.25
2019-03-18T22:25:59.058Z,5.29
2019-03-18T22:28:30.481Z,5.33
2019-03-18T22:31:02.035Z,5.35
2019-03-18T22:33:33.334Z,5.25
2019-03-18T22:36:04.953Z,5.20
2019-03-18T22:38:36.163Z,5.33
2019-03-18T22:41:07.462Z,5.27
2019-03-18T22:43:41.245Z,5.22
2019-03-18T22:46:12.455Z,5.16
2019-03-18T22:48:44.008Z,5.16
2019-03-18T22:51:15.330Z,5.26
2019-03-18T22:53:46.907Z,5.15
2019-03-18T22:56:18.108Z,5.20
2019-03-18T22:58:49.357Z,5.17
2019-03-18T23:01:22.552Z,5.18
2019-03-18T23:03:54.271Z,5.10
2019-03-18T23:06:26.943Z,5.03
2019-03-18T23:08:58.442Z,5.06
2019-03-18T23:11:30.373Z,5.13
2019-03-18T23:14:01.708Z,5.18
2019-03-18T23:16:32.998Z,5.08
2019-03-18T23:19:04.330Z,5.17
2019-03-18T23:21:35.841Z,5.16
2019-03-18T23:24:08.915Z,5.15
2019-03-18T23:26:40.139Z,5.13
2019-03-18T23:29:11.581Z,5.15
2019-03-18T23:31:43.481Z,5.06
2019-03-18T23:34:15.545Z,5.12
2019-03-18T23:36:47.291Z,5.09
2019-03-18T23:39:18.562Z,5.07
2019-03-18T23:41:50.684Z,5.02
2019-03-18T23:44:22.879Z,5.00
2019-03-18T23:58:51.942Z,5.13
